首页
METAR-TAF:

METAR-TAF

机场 :

索菲亞機場

索菲亞, 保加利亚

纬度: 42-39N, 经度: 023-23E, 海拔: 586米

当前天气观测

该预报发布于29分钟前的02:30 UTC
风速14节,风向东转东南
温度 1°C
湿度 86%
气压 1016 hPa
能见度10公里或以上
阴天层高于1900英尺

METAR: LBSF 220230Z 11014KT 9999 OVC019 01/M01 Q1016 R99/19//95 NOSIG

时间: 04:59 (02:59 UTC)

预报

该预报发布于3小时和59分钟前的23:00 UTC
预报有效从22日的 00点(UTC)到 22日的 24点(UTC)
风速8节,风向
能見度: 7000
散云层高于500英尺
阴天层高于1000英尺
短暂存在
从 22日的 03点(UTC)到 22日的 07点(UTC)
能見度: 3000
轻雾
几率 30% :
短暂存在
从 22日的 03点(UTC)到 22日的 06点(UTC)
能見度: 2000
多云层高于500英尺
阴天层高于1000英尺
(小) 冻, 雨, 轻雾
成为
从 22日的 07点(UTC)到 22日的 09点(UTC)
散云层高于2000英尺
多云层高于4000英尺
短暂存在
从 22日的 15点(UTC)到 22日的 22点(UTC)
能見度: 5000

TAF: LBSF 212300Z 2200/2224 10008KT 7000 SCT005 OVC010 TEMPO 2203/2207 3000 BR PROB30 TEMPO 2203/2206 2000 -FZRA BR BKN005 OVC010 BECMG 2207/2209 SCT020 BKN040 TEMPO 2215/2222 5000 RA

超过4000个机场的气象观测和天气预报(METAR&TAF报告)。

可查询的气象台以黄色和红色小点在地图上表示。

将鼠标移到小点上方,可查看气象台名称。

然后点击查看天气观测和预报。

如需切换地图:点击带黑十字的绿色按钮放大地图;点击带横线的绿色按钮缩小地图;或者点击绿色箭头查看邻近地区的地图。


METAR-TAF: